Terminal Aerodrome Forecast
Issued by NWS Jacksonville, FL

Home | Current Version | Previous Version | Text Only | Print | Product List | Glossary On
Versions: 1 2 3 4 5 6 7 8 9 10 11 12 13 14 15 16 17 18 19 20 21 22 23 24 25 26 27 28 29 30 31
719
FTUS42 KJAX 232005 AAA
TAFGNV
TAF AMD
KGNV 232005Z 2320/2418 03010KT 6SM -RA BR OVC007
     FM240100 01008KT 4SM -RA BR OVC005
      TEMPO 2407/2411 2SM BR OVC005
     FM241400 02010KT P6SM SCT005 OVC015=

USA.gov is the U.S. government's official web portal to all federal, state and local government web resources and services.